Terminal Aerodrome Forecast
Issued by NWS

Current Version | Previous Version | Text Only | Print | Product List | Glossary On
Versions: 1 2 3 4 5 6 7 8 9 10 11 12 13 14 15 16
152
FTUS41 KPBZ 260821 AAB
TAFHLG
TAF AMD
KHLG 260821Z 2608/2706 00000KT 1/4SM FG OVC001
     FM261300 15003KT P6SM SKC=

USA.gov is the U.S. government's official web portal to all federal, state and local government web resources and services.